Weather at Briarhill Airport [CLOSED]

Public forecast

Using degrees Fahrenheit for public forecast. Weather courtesy of forecast.io.

Closest aviation weather report (METAR) to Briarhill Airport

Closest report is Denton Enterprise Airport, 10.0 nm (18.5 km) NW.

2024/05/29 20:53 (retrieved 19 minutes ago)

KDTO 292053Z 07006KT 10SM CLR 30/19 A3001 RMK AO2 SLP154 T03000194 58016

Closest aviation forecast (TAF) to Briarhill Airport

Closest forecast is Dallas Fort Worth International Airport, 10.9 nm (20.1 km) S.

2024/05/29 21:03 Ammendment (retrieved 9 minutes ago)

TAF AMD KDFW 292101Z 2921/3024 12008KT P6SM BKN060 FM301000 15008KT P6SM VCSH BKN015 FM301600 15010KT P6SM VCTS OVC025CB TEMPO 3016/3020 30020G30KT 2SM TSRA FM302000 15012KT P6SM BKN040